KALN/ALN METAR and TAF weather

Enter ICAO airport designator
Station Type Date Time Source
KALN METAR 2021/03/03 00:52 UTC NOAA

KALN 030052Z 10005KT 10SM CLR 06/01 A3009


Station Type Date Time Source
KALN Decoded METAR 2021/03/03 00:52 UTC NOAA

Alton/St. Louis, St. Louis Regional Airport, IL, United States (KALN) 38-54N 090-03W
Mar 02, 2021 - 07:52 PM EST / 2021.03.03 0052 UTC
Wind: from the E (100 degrees) at 6 MPH (5 KT):0
Visibility: 10 mile(s):0
Sky conditions: clear
Temperature: 42 F (6 C)
Dew Point: 33 F (1 C)
Relative Humidity: 70%
Pressure (altimeter): 30.09 in. Hg (1018 hPa)
ob: KALN 030052Z 10005KT 10SM CLR 06/01 A3009
cycle: 1

Station Type Date Time Source
KALN TAF UTC NOAA

Error!

Example: see airport list